Time;durP1;ratioP1;P1;durP2;ratioP2;P2;SDS_P1;SDS_P2;PMS_P1;PMS_P2;Temp;Humidity;BMP_temperature;BMP_pressure;BME280_temperature;BME280_humidity;BME280_pressure;Samples;Min_cycle;Max_cycle;Signal;HPM_P1;HPM_P2
2023/10/31 00:00:20;;;;;;;3.17;1.17;;;12.20;99.90;;;;;;5045748;28;20025;-78
2023/10/31 00:02:46;;;;;;;3.17;0.98;;;12.20;99.90;;;;;;5046243;28;20108;-78
2023/10/31 00:05:11;;;;;;;1.58;0.82;;;12.10;99.90;;;;;;5045974;28;20021;-78
2023/10/31 00:07:37;;;;;;;2.47;1.20;;;12.00;99.90;;;;;;5046687;28;20056;-77
2023/10/31 00:10:03;;;;;;;3.70;1.35;;;12.00;99.90;;;;;;5047747;28;20029;-79
2023/10/31 00:12:28;;;;;;;3.15;1.50;;;12.00;99.90;;;;;;5050352;28;20115;-78
2023/10/31 00:14:54;;;;;;;5.40;1.40;;;12.00;99.90;;;;;;5049601;28;20029;-78
2023/10/31 00:17:20;;;;;;;3.03;1.27;;;11.90;99.90;;;;;;5050056;28;20534;-77
2023/10/31 00:19:45;;;;;;;3.00;1.30;;;11.90;99.90;;;;;;5049868;28;20082;-78
2023/10/31 00:22:11;;;;;;;3.08;1.15;;;11.90;99.90;;;;;;5048987;28;20062;-78
2023/10/31 00:24:36;;;;;;;2.80;1.25;;;11.90;99.90;;;;;;5048165;28;20040;-78
2023/10/31 00:27:02;;;;;;;3.28;1.10;;;11.90;99.90;;;;;;5050085;28;20049;-77
2023/10/31 00:29:28;;;;;;;4.13;1.50;;;11.90;99.90;;;;;;5049590;28;20424;-78
2023/10/31 00:31:53;;;;;;;5.03;1.60;;;11.90;99.90;;;;;;5050050;28;20024;-78
2023/10/31 00:34:20;;;;;;;3.10;1.45;;;11.80;99.90;;;;;;5049527;28;20028;-78
2023/10/31 00:36:45;;;;;;;5.95;2.20;;;11.80;99.90;;;;;;5048392;28;20750;-78
2023/10/31 00:39:11;;;;;;;3.08;1.58;;;11.80;99.90;;;;;;5049366;28;20032;-78
2023/10/31 00:41:39;;;;;;;5.13;1.30;;;11.80;99.90;;;;;;5049774;28;20028;-78
2023/10/31 00:44:04;;;;;;;4.15;1.67;;;11.70;99.90;;;;;;5049066;28;20098;-78
2023/10/31 00:46:30;;;;;;;7.80;1.80;;;11.70;99.90;;;;;;5049804;28;20017;-78
2023/10/31 00:48:57;;;;;;;3.17;1.80;;;11.70;99.90;;;;;;5049144;28;20509;-78
2023/10/31 00:51:22;;;;;;;5.97;1.98;;;11.70;99.90;;;;;;5049410;28;20044;-78
2023/10/31 00:53:48;;;;;;;4.63;1.77;;;11.60;99.90;;;;;;5049111;28;20029;-78
2023/10/31 00:56:14;;;;;;;6.88;2.08;;;11.60;99.90;;;;;;5049567;28;20024;-78
2023/10/31 00:58:39;;;;;;;5.05;1.88;;;11.60;99.90;;;;;;5049157;28;20086;-78
2023/10/31 01:01:05;;;;;;;7.50;1.90;;;11.60;99.90;;;;;;5049405;28;20108;-78
2023/10/31 01:03:31;;;;;;;5.95;1.95;;;11.50;99.90;;;;;;5047905;28;20025;-78
2023/10/31 01:05:56;;;;;;;8.70;2.45;;;11.50;99.90;;;;;;5047665;28;20032;-78
2023/10/31 01:08:22;;;;;;;8.20;2.78;;;11.40;99.90;;;;;;5049218;28;20009;-77
2023/10/31 01:10:47;;;;;;;9.60;3.50;;;11.40;99.90;;;;;;5049369;28;20035;-78
2023/10/31 01:13:13;;;;;;;13.20;4.85;;;11.40;99.90;;;;;;5049032;28;20013;-78
2023/10/31 01:15:39;;;;;;;15.65;5.50;;;11.40;99.90;;;;;;5048735;28;20036;-78
2023/10/31 01:18:05;;;;;;;12.65;5.50;;;11.30;99.90;;;;;;5049278;28;20103;-78
2023/10/31 01:20:31;;;;;;;17.15;7.43;;;11.30;99.90;;;;;;5047854;28;20470;-78
2023/10/31 01:22:57;;;;;;;19.58;8.10;;;11.30;99.90;;;;;;5049338;28;20027;-78
2023/10/31 01:25:22;;;;;;;15.90;9.15;;;11.30;99.90;;;;;;5047099;28;20394;-78
2023/10/31 01:27:48;;;;;;;19.05;9.68;;;11.20;99.90;;;;;;5049249;28;20024;-79
2023/10/31 01:30:13;;;;;;;17.17;9.77;;;11.30;99.90;;;;;;5048444;28;20021;-78
2023/10/31 01:32:39;;;;;;;18.48;10.13;;;11.30;99.90;;;;;;5047653;28;20036;-78
2023/10/31 01:35:05;;;;;;;22.98;11.40;;;11.20;99.90;;;;;;5048405;28;20099;-78
2023/10/31 01:37:30;;;;;;;18.80;9.93;;;11.30;99.90;;;;;;5048620;28;20021;-78
2023/10/31 01:39:56;;;;;;;20.08;9.98;;;11.30;99.90;;;;;;5048303;28;20031;-78
2023/10/31 01:42:22;;;;;;;18.63;9.57;;;11.30;99.90;;;;;;5048172;28;20391;-78
2023/10/31 01:44:48;;;;;;;20.35;9.93;;;11.30;99.90;;;;;;5047980;28;20508;-78
2023/10/31 01:47:14;;;;;;;17.83;9.60;;;11.30;99.90;;;;;;5048699;28;20021;-78
2023/10/31 01:49:40;;;;;;;21.60;10.90;;;11.30;99.90;;;;;;5047646;28;20069;-79
2023/10/31 01:52:06;;;;;;;21.58;11.85;;;11.30;99.90;;;;;;5048726;28;20044;-78
2023/10/31 01:54:35;;;;;;;22.42;12.25;;;11.30;99.90;;;;;;5047909;28;20025;-79
2023/10/31 01:57:04;;;;;;;24.35;13.52;;;11.30;99.90;;;;;;5047212;28;20022;-78
2023/10/31 01:59:30;;;;;;;22.25;14.18;;;11.30;99.90;;;;;;5046365;28;20136;-79
2023/10/31 02:01:57;;;;;;;25.27;15.05;;;11.30;99.90;;;;;;5048589;28;20121;-78
2023/10/31 02:04:25;;;;;;;29.25;15.63;;;11.30;99.90;;;;;;5047826;28;20075;-78
2023/10/31 02:06:51;;;;;;;29.58;15.73;;;11.30;99.90;;;;;;5048620;28;20104;-79
2023/10/31 02:09:17;;;;;;;23.55;13.45;;;11.30;99.90;;;;;;5047438;28;20125;-77
2023/10/31 02:11:42;;;;;;;20.25;13.40;;;11.30;99.90;;;;;;5048356;28;20029;-78
2023/10/31 02:14:08;;;;;;;20.67;12.48;;;11.20;99.90;;;;;;5046089;28;20406;-78
2023/10/31 02:16:33;;;;;;;23.05;13.07;;;11.20;99.90;;;;;;5048020;28;20059;-79
2023/10/31 02:18:59;;;;;;;21.88;11.82;;;11.20;99.90;;;;;;5047804;28;20043;-80
2023/10/31 02:21:26;;;;;;;23.25;11.05;;;11.20;99.90;;;;;;5047529;28;20103;-79
2023/10/31 02:23:59;;;;;;;25.45;11.95;;;11.20;99.90;;;;;;5046385;28;20444;-79
2023/10/31 02:26:29;;;;;;;19.98;10.18;;;11.20;99.90;;;;;;5047541;28;20082;-79
2023/10/31 02:28:55;;;;;;;18.05;10.02;;;11.20;99.90;;;;;;5047621;28;20039;-79
2023/10/31 02:31:21;;;;;;;19.45;10.35;;;11.20;99.90;;;;;;5046613;28;20029;-78
2023/10/31 02:33:46;;;;;;;21.83;10.90;;;11.20;99.90;;;;;;5047583;28;20021;-78
2023/10/31 02:36:12;;;;;;;17.42;10.60;;;11.20;99.90;;;;;;5047498;28;20520;-79
2023/10/31 02:38:38;;;;;;;22.55;12.10;;;11.20;99.90;;;;;;5046037;28;20033;-79
2023/10/31 02:41:03;;;;;;;21.65;10.70;;;11.20;99.90;;;;;;5047659;28;20041;-79
2023/10/31 02:43:29;;;;;;;28.58;13.63;;;11.20;99.90;;;;;;5047278;28;20641;-78
2023/10/31 02:45:55;;;;;;;23.08;12.77;;;11.20;99.90;;;;;;5047300;28;20080;-79
2023/10/31 02:48:20;;;;;;;27.13;13.40;;;11.20;99.90;;;;;;5047747;28;20024;-79
2023/10/31 02:50:46;;;;;;;26.98;12.77;;;11.20;99.90;;;;;;5047052;28;20190;-79
2023/10/31 02:53:12;;;;;;;23.52;12.55;;;11.20;99.90;;;;;;5046399;28;20382;-79
2023/10/31 02:55:37;;;;;;;30.48;13.45;;;11.20;99.90;;;;;;5046792;28;20095;-78
2023/10/31 02:58:03;;;;;;;27.98;12.82;;;11.20;99.90;;;;;;5047334;28;20074;-78
2023/10/31 03:00:29;;;;;;;21.88;12.52;;;11.30;99.90;;;;;;5045470;28;20035;-79
2023/10/31 03:02:54;;;;;;;23.45;12.88;;;11.30;99.90;;;;;;5047410;28;20493;-79
2023/10/31 03:05:20;;;;;;;24.73;13.25;;;11.30;99.90;;;;;;5046666;28;20025;-78
2023/10/31 03:07:46;;;;;;;24.95;12.68;;;11.30;99.90;;;;;;5047235;28;20375;-78
2023/10/31 03:10:11;;;;;;;24.48;12.95;;;11.30;99.90;;;;;;5045233;28;20497;-79
2023/10/31 03:12:37;;;;;;;20.80;12.57;;;11.30;99.90;;;;;;5047004;28;20086;-77
2023/10/31 03:15:03;;;;;;;25.30;14.27;;;11.30;99.90;;;;;;5046441;28;20033;-78
2023/10/31 03:17:29;;;;;;;26.10;13.60;;;11.30;99.90;;;;;;5047035;28;20074;-78
2023/10/31 03:19:55;;;;;;;26.00;14.13;;;11.30;99.90;;;;;;5046396;28;20111;-79
2023/10/31 03:22:21;;;;;;;25.75;14.60;;;11.30;99.90;;;;;;5046252;28;20112;-78
2023/10/31 03:24:46;;;;;;;24.00;15.20;;;11.30;99.90;;;;;;5045058;28;20449;-78
2023/10/31 03:27:12;;;;;;;26.70;16.40;;;11.30;99.90;;;;;;5046925;28;20092;-78
2023/10/31 03:29:38;;;;;;;27.38;17.08;;;11.30;99.90;;;;;;5046431;28;20195;-79
2023/10/31 03:32:05;;;;;;;29.02;14.73;;;11.30;99.90;;;;;;5046968;28;20021;-78
2023/10/31 03:34:30;;;;;;;26.80;16.80;;;11.30;99.90;;;;;;5046225;28;20112;-77
2023/10/31 03:36:56;;;;;;;34.67;16.40;;;11.30;99.90;;;;;;5046709;28;21439;-78
2023/10/31 03:39:22;;;;;;;25.58;15.10;;;11.30;99.90;;;;;;5046004;28;20465;-78
2023/10/31 03:41:47;;;;;;;30.45;16.63;;;11.30;99.90;;;;;;5046800;28;20037;-78
2023/10/31 03:44:13;;;;;;;24.80;15.23;;;11.30;99.90;;;;;;5049492;28;20021;-78
2023/10/31 03:46:39;;;;;;;26.33;17.08;;;11.30;99.90;;;;;;5050640;28;20029;-79
2023/10/31 03:49:07;;;;;;;25.08;14.63;;;11.30;99.90;;;;;;5050152;28;20024;-78
2023/10/31 03:51:34;;;;;;;23.13;14.95;;;11.30;99.90;;;;;;5050331;28;20752;-78
2023/10/31 03:53:59;;;;;;;25.13;15.13;;;11.30;99.90;;;;;;5050546;28;20028;-78
2023/10/31 03:56:25;;;;;;;25.20;13.95;;;11.30;99.90;;;;;;5049982;28;20021;-79
2023/10/31 03:58:50;;;;;;;25.95;15.38;;;11.30;99.90;;;;;;5050372;28;20040;-78
2023/10/31 04:01:16;;;;;;;20.63;13.05;;;11.30;99.90;;;;;;5049039;28;20064;-78
2023/10/31 04:03:42;;;;;;;18.60;10.73;;;11.30;99.90;;;;;;5050682;28;20494;-78
2023/10/31 04:06:08;;;;;;;14.38;8.88;;;11.30;99.90;;;;;;5050129;28;20025;-79
2023/10/31 04:08:34;;;;;;;17.98;9.43;;;11.30;99.90;;;;;;5045394;28;20017;-79
2023/10/31 04:10:59;;;;;;;14.40;8.95;;;11.30;99.90;;;;;;5050124;28;20086;-82
2023/10/31 04:13:25;;;;;;;12.10;7.15;;;11.30;99.90;;;;;;5050597;28;20017;-78
2023/10/31 04:15:50;;;;;;;14.55;7.05;;;11.30;99.90;;;;;;5050281;28;20028;-79
2023/10/31 04:18:16;;;;;;;11.25;6.50;;;11.30;99.90;;;;;;5050556;28;20029;-78
2023/10/31 04:20:42;;;;;;;11.75;6.22;;;11.30;99.90;;;;;;5050139;28;20387;-79
2023/10/31 04:23:08;;;;;;;9.95;5.63;;;11.30;99.90;;;;;;5050668;28;20054;-78
2023/10/31 04:25:34;;;;;;;11.68;5.75;;;11.30;99.90;;;;;;5049732;28;20025;-79
2023/10/31 04:28:00;;;;;;;12.50;5.68;;;11.30;99.90;;;;;;5050136;28;20036;-79
2023/10/31 04:30:26;;;;;;;11.13;5.45;;;11.30;99.90;;;;;;5049648;28;20029;-79
2023/10/31 04:32:52;;;;;;;8.60;4.93;;;11.30;99.90;;;;;;5050215;28;20029;-79
2023/10/31 04:35:18;;;;;;;10.70;5.38;;;11.30;99.90;;;;;;5049117;28;20546;-79
2023/10/31 04:37:44;;;;;;;9.82;5.75;;;11.30;99.90;;;;;;5050080;28;20043;-78
2023/10/31 04:40:10;;;;;;;12.07;5.78;;;11.30;99.90;;;;;;5049140;28;20033;-78
2023/10/31 04:42:35;;;;;;;12.35;5.60;;;11.30;99.90;;;;;;5049711;28;20017;-79
2023/10/31 04:45:01;;;;;;;12.80;6.30;;;11.30;99.90;;;;;;5049441;28;20840;-79
2023/10/31 04:47:27;;;;;;;13.82;7.22;;;11.30;99.90;;;;;;5048283;28;20025;-79
2023/10/31 04:49:52;;;;;;;14.05;7.57;;;11.30;99.90;;;;;;5047580;28;20052;-78
2023/10/31 04:52:19;;;;;;;17.50;7.82;;;11.30;99.90;;;;;;5049647;28;20028;-79
2023/10/31 04:54:45;;;;;;;16.70;7.93;;;11.30;99.90;;;;;;5048581;28;20090;-79
2023/10/31 04:57:11;;;;;;;14.68;8.05;;;11.30;99.90;;;;;;5048228;28;20486;-79
2023/10/31 04:59:37;;;;;;;15.52;8.65;;;11.30;99.90;;;;;;5048759;28;20086;-78
2023/10/31 05:02:03;;;;;;;12.88;8.40;;;11.40;99.90;;;;;;5049628;28;20024;-78
2023/10/31 05:04:29;;;;;;;13.93;8.50;;;11.30;99.90;;;;;;5049586;28;20477;-79
2023/10/31 05:06:55;;;;;;;14.23;9.05;;;11.30;99.90;;;;;;5049384;28;20060;-79
2023/10/31 05:09:20;;;;;;;12.70;8.30;;;11.30;99.90;;;;;;5048981;28;20033;-78
2023/10/31 05:11:46;;;;;;;14.60;7.88;;;11.40;99.90;;;;;;5049359;28;20600;-78
2023/10/31 05:14:12;;;;;;;17.08;9.32;;;11.40;99.90;;;;;;5049097;28;20395;-79
2023/10/31 05:16:43;;;;;;;15.65;9.38;;;11.40;99.90;;;;;;5048739;28;20029;-78
2023/10/31 05:19:10;;;;;;;23.40;9.10;;;11.40;99.90;;;;;;5048998;28;20490;-78
2023/10/31 05:21:36;;;;;;;17.42;9.20;;;11.40;99.90;;;;;;5048935;28;20025;-79
2023/10/31 05:24:02;;;;;;;17.50;9.88;;;11.40;99.90;;;;;;5049063;28;20050;-79
2023/10/31 05:26:29;;;;;;;18.23;9.82;;;11.40;99.90;;;;;;5048646;28;20036;-79
2023/10/31 05:28:56;;;;;;;15.77;9.35;;;11.30;99.90;;;;;;5049088;28;20025;-80
2023/10/31 05:31:22;;;;;;;16.50;9.30;;;11.30;99.90;;;;;;5048564;28;20036;-79
2023/10/31 05:33:48;;;;;;;17.23;9.13;;;11.30;99.90;;;;;;5049229;28;20029;-78
2023/10/31 05:36:21;;;;;;;15.15;8.45;;;11.30;99.90;;;;;;5049047;28;20108;-78
2023/10/31 05:38:47;;;;;;;17.00;8.20;;;11.30;99.90;;;;;;5049081;28;20032;-78
2023/10/31 05:41:13;;;;;;;11.98;6.05;;;11.30;99.90;;;;;;5048584;28;20025;-78
2023/10/31 05:43:39;;;;;;;14.43;7.57;;;11.30;99.90;;;;;;5048821;28;20017;-78
2023/10/31 05:46:05;;;;;;;14.45;6.68;;;11.20;99.90;;;;;;5048595;28;20028;-78
2023/10/31 05:48:32;;;;;;;14.23;6.03;;;11.20;99.90;;;;;;5047934;28;20080;-77
2023/10/31 05:50:57;;;;;;;10.25;4.85;;;11.20;99.90;;;;;;5046856;28;20494;-78
2023/10/31 05:53:23;;;;;;;8.15;4.40;;;11.20;99.90;;;;;;5048561;28;20029;-78
2023/10/31 05:55:49;;;;;;;9.23;4.20;;;11.20;99.90;;;;;;5048733;28;20032;-78
2023/10/31 05:58:15;;;;;;;10.18;4.07;;;11.20;99.90;;;;;;5049422;28;20017;-78
2023/10/31 06:00:40;;;;;;;7.18;3.63;;;11.20;99.90;;;;;;5049120;28;20470;-77
2023/10/31 06:03:06;;;;;;;8.07;3.80;;;11.10;99.90;;;;;;5049464;28;20428;-77
2023/10/31 06:05:32;;;;;;;9.98;3.75;;;11.10;99.90;;;;;;5048449;28;20013;-76
2023/10/31 06:07:58;;;;;;;8.70;3.97;;;11.10;99.90;;;;;;5049244;28;20076;-76
2023/10/31 06:10:26;;;;;;;6.65;3.67;;;11.10;99.90;;;;;;5047567;28;20570;-82
2023/10/31 06:12:51;;;;;;;9.15;3.80;;;11.10;99.90;;;;;;5048740;28;20037;-78
2023/10/31 06:15:17;;;;;;;7.38;3.58;;;11.00;99.90;;;;;;5048638;28;20394;-80
2023/10/31 06:17:43;;;;;;;5.40;2.92;;;11.00;99.90;;;;;;5047819;28;20406;-78
2023/10/31 06:20:09;;;;;;;6.57;2.70;;;11.00;99.90;;;;;;5048636;28;20136;-77
2023/10/31 06:22:35;;;;;;;4.57;2.55;;;11.00;99.90;;;;;;5048599;28;20591;-78
2023/10/31 06:25:01;;;;;;;4.05;2.60;;;11.00;99.90;;;;;;5047186;28;20029;-79
2023/10/31 06:27:26;;;;;;;4.93;2.40;;;11.00;99.90;;;;;;5047221;28;20062;-79
2023/10/31 06:29:52;;;;;;;6.95;2.50;;;11.00;99.90;;;;;;5047236;28;20037;-78
2023/10/31 06:32:18;;;;;;;8.27;3.15;;;10.90;99.90;;;;;;5048482;28;20413;-78
2023/10/31 06:34:44;;;;;;;7.78;3.80;;;10.90;99.90;;;;;;5048302;28;20505;-79
2023/10/31 06:37:09;;;;;;;9.25;4.45;;;10.90;99.90;;;;;;5047807;28;20552;-80
2023/10/31 06:39:35;;;;;;;11.85;5.40;;;10.90;99.90;;;;;;5047774;28;20033;-79
2023/10/31 06:42:01;;;;;;;18.38;7.45;;;10.90;99.90;;;;;;5047462;28;20116;-80
2023/10/31 06:44:27;;;;;;;17.55;7.07;;;11.00;99.90;;;;;;5046220;28;20013;-80
2023/10/31 06:46:52;;;;;;;16.40;8.07;;;11.00;99.90;;;;;;5047861;28;20017;-80
2023/10/31 06:49:19;;;;;;;19.20;9.15;;;11.00;99.90;;;;;;5047833;28;20498;-80
2023/10/31 06:51:45;;;;;;;25.42;9.63;;;11.00;99.90;;;;;;5049088;28;20031;-79
2023/10/31 06:54:10;;;;;;;20.20;9.40;;;11.00;99.90;;;;;;5045657;28;20013;-80
2023/10/31 06:56:36;;;;;;;24.15;10.43;;;11.00;99.90;;;;;;5046973;28;20029;-80
2023/10/31 06:59:02;;;;;;;24.10;11.13;;;11.00;99.90;;;;;;5047248;28;20554;-79
2023/10/31 07:01:27;;;;;;;20.98;11.05;;;11.00;99.90;;;;;;5047438;28;20074;-79
2023/10/31 07:03:55;;;;;;;26.13;9.70;;;11.00;99.90;;;;;;5045654;28;20494;-79
2023/10/31 07:06:21;;;;;;;22.60;10.02;;;11.00;99.90;;;;;;5044971;28;20017;-78
2023/10/31 07:08:47;;;;;;;12.60;7.28;;;11.00;99.90;;;;;;5045781;28;20055;-78
2023/10/31 07:11:12;;;;;;;20.85;9.15;;;11.00;99.90;;;;;;5044595;28;20490;-79
2023/10/31 07:13:38;;;;;;;17.23;9.32;;;11.00;99.90;;;;;;5034860;28;20173;-78
2023/10/31 07:16:04;;;;;;;13.85;7.38;;;11.10;99.90;;;;;;5046324;28;20225;-79
2023/10/31 07:18:30;;;;;;;29.05;12.82;;;11.10;99.90;;;;;;5046194;28;20052;-80
2023/10/31 07:20:56;;;;;;;33.25;14.27;;;11.10;99.90;;;;;;5045635;28;20053;-82
2023/10/31 07:23:22;;;;;;;27.70;14.13;;;11.10;99.90;;;;;;5047759;28;20020;-81
2023/10/31 07:25:48;;;;;;;30.38;15.95;;;11.10;99.90;;;;;;5033263;28;20079;-81
2023/10/31 07:28:13;;;;;;;36.25;16.98;;;11.10;99.90;;;;;;5042440;28;20624;-80
2023/10/31 07:30:39;;;;;;;33.97;17.55;;;11.10;99.90;;;;;;5045296;28;20029;-81
2023/10/31 07:33:07;;;;;;;34.35;18.05;;;11.10;99.90;;;;;;5046985;28;20021;-81
2023/10/31 07:35:33;;;;;;;38.10;18.63;;;11.10;99.90;;;;;;5045010;28;20414;-80
2023/10/31 07:37:59;;;;;;;38.58;19.42;;;11.10;99.90;;;;;;5046937;28;20025;-82
2023/10/31 07:40:24;;;;;;;33.70;18.55;;;11.20;99.90;;;;;;5046171;28;20048;-80
2023/10/31 07:42:50;;;;;;;37.67;20.42;;;11.10;99.90;;;;;;5046826;28;20032;-80
2023/10/31 07:45:15;;;;;;;34.13;18.92;;;11.20;99.90;;;;;;5046104;28;20021;-81
2023/10/31 07:47:41;;;;;;;34.10;19.40;;;11.20;99.90;;;;;;5047122;28;20414;-81
2023/10/31 07:50:07;;;;;;;33.65;19.73;;;11.20;99.90;;;;;;5046678;28;20137;-81
2023/10/31 07:52:33;;;;;;;33.95;18.60;;;11.20;99.90;;;;;;5046139;28;20032;-81
2023/10/31 07:54:58;;;;;;;30.42;17.77;;;11.20;99.90;;;;;;5046767;28;20413;-82
2023/10/31 07:57:24;;;;;;;29.05;17.17;;;11.20;99.90;;;;;;5046757;28;20075;-82
2023/10/31 07:59:50;;;;;;;30.58;18.00;;;11.30;99.90;;;;;;5046427;28;20488;-81
2023/10/31 08:02:16;;;;;;;31.40;18.80;;;11.30;99.90;;;;;;5044051;28;20032;-82
2023/10/31 08:04:41;;;;;;;29.13;18.00;;;11.30;99.90;;;;;;5045360;28;20115;-82
2023/10/31 08:07:07;;;;;;;33.35;19.00;;;11.40;99.90;;;;;;5045481;28;20032;-81
2023/10/31 08:09:32;;;;;;;27.10;16.95;;;11.40;99.90;;;;;;5046639;28;20028;-82
2023/10/31 08:11:58;;;;;;;29.13;16.25;;;11.40;99.90;;;;;;5045612;28;20025;-81
2023/10/31 08:14:24;;;;;;;29.85;17.65;;;11.40;99.90;;;;;;5044889;28;20085;-81
2023/10/31 08:16:49;;;;;;;29.40;18.23;;;11.50;99.90;;;;;;5031508;28;20033;-82
2023/10/31 08:19:15;;;;;;;26.73;16.20;;;11.40;99.90;;;;;;5045392;28;20394;-83
2023/10/31 08:21:41;;;;;;;25.27;15.10;;;11.50;99.90;;;;;;5047245;28;20048;-84
2023/10/31 08:24:07;;;;;;;23.13;14.95;;;11.50;99.90;;;;;;5046289;28;20025;-82
2023/10/31 08:26:34;;;;;;;22.55;14.80;;;11.50;99.90;;;;;;5047624;28;20029;-83
2023/10/31 08:28:59;;;;;;;21.55;14.38;;;11.50;99.90;;;;;;5045830;28;20055;-83
2023/10/31 08:31:25;;;;;;;24.70;14.02;;;11.60;99.90;;;;;;5050646;28;20028;-84
2023/10/31 08:33:51;;;;;;;23.73;13.55;;;11.70;99.90;;;;;;5052072;28;20032;-84
2023/10/31 08:36:16;;;;;;;22.92;13.30;;;11.70;99.90;;;;;;5043890;28;20031;-83
2023/10/31 08:38:42;;;;;;;22.60;13.02;;;11.80;99.90;;;;;;5049800;28;20029;-84
2023/10/31 08:41:08;;;;;;;17.60;11.60;;;11.90;99.90;;;;;;5051619;28;20501;-84
2023/10/31 08:43:34;;;;;;;17.88;11.10;;;11.90;99.90;;;;;;5051612;28;20021;-81
2023/10/31 08:45:59;;;;;;;18.73;12.18;;;12.00;99.90;;;;;;5051540;28;20493;-84
2023/10/31 08:48:26;;;;;;;18.83;12.05;;;12.00;99.90;;;;;;5051426;28;20013;-84
2023/10/31 08:50:51;;;;;;;17.92;11.35;;;12.00;99.90;;;;;;5052127;28;20055;-84
2023/10/31 08:53:19;;;;;;;18.67;10.68;;;12.10;99.90;;;;;;5038914;28;20017;-84
2023/10/31 08:55:45;;;;;;;20.98;11.02;;;12.10;99.90;;;;;;5051544;28;20032;-83
2023/10/31 08:58:14;;;;;;;20.42;11.40;;;12.10;99.90;;;;;;5048879;28;20021;-84
2023/10/31 09:00:42;;;;;;;20.95;10.63;;;12.20;99.90;;;;;;5050610;28;20796;-84
2023/10/31 09:03:08;;;;;;;17.23;10.75;;;12.20;99.90;;;;;;5046668;28;20025;-85
2023/10/31 09:05:34;;;;;;;20.65;11.20;;;12.20;99.90;;;;;;5037184;28;20021;-82
2023/10/31 09:08:00;;;;;;;19.52;11.02;;;12.20;99.90;;;;;;5051111;28;20032;-84
2023/10/31 09:10:26;;;;;;;17.42;10.45;;;12.30;99.90;;;;;;5034348;28;20030;-82
2023/10/31 09:12:52;;;;;;;17.20;9.88;;;12.20;99.90;;;;;;5056084;28;20037;-85
2023/10/31 09:15:18;;;;;;;17.23;9.90;;;12.30;99.90;;;;;;5055577;28;20022;-84
2023/10/31 09:17:44;;;;;;;17.27;9.00;;;12.30;99.90;;;;;;5050909;28;20275;-86
2023/10/31 09:20:11;;;;;;;21.20;9.35;;;12.30;99.90;;;;;;5052023;28;20375;-85
2023/10/31 09:22:37;;;;;;;17.70;9.10;;;12.40;99.90;;;;;;5052831;28;20111;-85
2023/10/31 09:25:03;;;;;;;15.75;9.25;;;12.50;99.90;;;;;;5054583;28;20074;-87
2023/10/31 09:27:29;;;;;;;20.42;9.35;;;12.60;99.90;;;;;;5053543;28;20115;-86
2023/10/31 09:29:54;;;;;;;14.43;9.48;;;12.60;99.90;;;;;;5038666;28;20022;-84
2023/10/31 09:32:20;;;;;;;16.08;8.80;;;12.70;99.90;;;;;;5044470;28;20477;-84
2023/10/31 09:34:45;;;;;;;16.30;10.38;;;12.80;99.90;;;;;;5047397;28;20056;-84
2023/10/31 09:37:11;;;;;;;15.57;10.57;;;12.90;99.90;;;;;;5050175;28;20481;-84
2023/10/31 09:39:37;;;;;;;17.92;11.45;;;13.00;99.90;;;;;;5051239;28;20033;-84
2023/10/31 09:42:03;;;;;;;20.08;13.30;;;13.10;99.90;;;;;;5045484;28;20028;-82
2023/10/31 09:44:28;;;;;;;18.80;12.40;;;13.10;99.90;;;;;;5048918;28;20094;-83
2023/10/31 09:46:55;;;;;;;20.15;13.43;;;13.10;99.90;;;;;;5052900;28;20017;-86
2023/10/31 09:49:21;;;;;;;16.65;13.10;;;13.10;99.90;;;;;;5049399;28;20410;-85
2023/10/31 09:51:48;;;;;;;16.65;13.63;;;13.10;99.90;;;;;;5052211;28;20025;-85
2023/10/31 09:54:16;;;;;;;20.92;13.85;;;13.10;99.90;;;;;;5051299;28;20035;-86
2023/10/31 09:56:43;;;;;;;20.98;13.70;;;13.10;99.90;;;;;;5049467;28;20095;-86
2023/10/31 09:59:15;;;;;;;19.38;14.18;;;13.10;99.90;;;;;;5057360;28;20033;-85
2023/10/31 10:01:41;;;;;;;21.55;14.88;;;13.20;99.90;;;;;;5041859;28;20025;-84
2023/10/31 10:04:07;;;;;;;20.60;14.13;;;13.20;99.90;;;;;;5061233;28;20017;-84
2023/10/31 10:06:33;;;;;;;20.00;14.30;;;13.20;99.90;;;;;;5043279;28;20028;-83
2023/10/31 10:08:59;;;;;;;20.52;13.63;;;13.30;99.90;;;;;;5050538;28;20033;-83
2023/10/31 10:11:25;;;;;;;17.45;12.15;;;13.40;99.90;;;;;;5049832;28;20028;-84
2023/10/31 10:13:53;;;;;;;17.48;12.43;;;13.40;99.90;;;;;;5051442;28;20021;-83
2023/10/31 10:16:32;;;;;;;14.55;11.68;;;13.40;99.90;;;;;;5050388;28;20055;-83
2023/10/31 10:19:19;;;;;;;18.42;11.68;;;13.40;99.90;;;;;;5050387;28;20025;-83
2023/10/31 10:21:49;;;;;;;19.83;9.90;;;13.40;99.90;;;;;;5050095;28;20025;-84
2023/10/31 10:24:15;;;;;;;13.93;9.52;;;13.40;99.90;;;;;;5049206;28;20013;-83
2023/10/31 10:26:41;;;;;;;12.88;8.35;;;13.40;99.90;;;;;;5048976;28;20056;-82
2023/10/31 10:29:06;;;;;;;14.60;8.48;;;13.50;99.90;;;;;;5049813;28;20045;-83
2023/10/31 10:31:32;;;;;;;13.75;7.95;;;13.50;99.90;;;;;;5047754;28;20060;-83
2023/10/31 10:33:58;;;;;;;12.40;7.80;;;13.60;99.90;;;;;;5049253;28;20535;-82
2023/10/31 10:36:26;;;;;;;16.05;8.23;;;13.70;99.90;;;;;;5047667;28;20032;-83
2023/10/31 10:38:56;;;;;;;15.60;8.77;;;13.80;99.90;;;;;;5048093;28;20025;-81
2023/10/31 10:41:24;;;;;;;14.07;8.83;;;13.90;99.90;;;;;;5048602;28;20471;-80
2023/10/31 10:43:56;;;;;;;13.35;8.35;;;13.90;99.90;;;;;;5047560;28;20480;-82
2023/10/31 10:46:25;;;;;;;19.98;9.90;;;14.00;99.90;;;;;;5047805;28;20047;-82
2023/10/31 10:48:57;;;;;;;16.10;8.05;;;14.10;99.90;;;;;;5048329;28;20074;-82
2023/10/31 10:51:29;;;;;;;13.68;8.55;;;14.10;99.90;;;;;;5047661;28;20075;-82
2023/10/31 10:54:09;;;;;;;14.00;8.52;;;14.20;99.90;;;;;;5047600;28;20017;-82
2023/10/31 10:56:41;;;;;;;12.68;8.27;;;14.30;99.90;;;;;;5047640;28;20458;-83
2023/10/31 10:59:18;;;;;;;18.17;8.80;;;14.30;99.90;;;;;;5038566;28;20067;-86
2023/10/31 11:01:47;;;;;;;17.17;9.38;;;14.30;99.90;;;;;;5043031;28;20033;-83
2023/10/31 11:04:13;;;;;;;13.95;9.07;;;14.20;99.90;;;;;;5049790;28;20021;-85
2023/10/31 11:06:39;;;;;;;14.48;9.48;;;14.20;99.90;;;;;;5050719;28;20021;-81
2023/10/31 11:09:09;;;;;;;15.82;9.55;;;14.10;99.90;;;;;;5047755;28;20095;-82
2023/10/31 11:11:35;;;;;;;14.82;10.13;;;14.10;99.90;;;;;;5043299;28;20029;-82
2023/10/31 11:14:02;;;;;;;15.98;11.57;;;14.10;99.90;;;;;;5042853;28;20025;-83
2023/10/31 11:16:35;;;;;;;20.30;14.23;;;14.10;99.90;;;;;;5034416;28;20365;-82
2023/10/31 11:19:01;;;;;;;14.25;12.52;;;14.10;99.90;;;;;;5047792;28;20504;-83
2023/10/31 11:21:31;;;;;;;21.83;17.20;;;14.00;99.90;;;;;;5043021;28;20496;-84
2023/10/31 11:24:00;;;;;;;22.75;18.65;;;14.00;99.90;;;;;;5046114;28;20051;-81
2023/10/31 11:26:27;;;;;;;25.13;18.50;;;14.10;99.90;;;;;;5032015;28;20096;-83
2023/10/31 11:29:02;;;;;;;25.58;17.90;;;14.00;99.90;;;;;;5046130;28;20104;-81
2023/10/31 11:31:28;;;;;;;27.60;20.35;;;14.00;99.90;;;;;;5046165;28;20068;-81
2023/10/31 11:33:54;;;;;;;24.45;19.75;;;14.00;99.90;;;;;;5045523;28;20048;-80
2023/10/31 11:36:19;;;;;;;30.00;20.38;;;14.00;99.90;;;;;;5044110;28;20071;-82
2023/10/31 11:38:45;;;;;;;28.02;19.83;;;14.00;99.90;;;;;;5045907;28;20033;-83
2023/10/31 11:41:12;;;;;;;26.48;18.90;;;14.00;99.90;;;;;;5044508;28;20025;-83
2023/10/31 11:43:41;;;;;;;25.38;18.83;;;14.10;99.90;;;;;;5047255;28;20074;-82
2023/10/31 11:46:19;;;;;;;26.42;19.83;;;14.10;99.90;;;;;;5047531;28;20029;-81
2023/10/31 11:48:53;;;;;;;26.45;19.92;;;14.10;99.90;;;;;;5046959;28;20390;-84
2023/10/31 11:51:19;;;;;;;25.48;18.73;;;14.10;99.90;;;;;;5047081;28;20056;-84
2023/10/31 11:53:45;;;;;;;26.10;19.30;;;14.10;99.90;;;;;;5047804;28;20128;-82
2023/10/31 11:56:11;;;;;;;28.40;19.13;;;14.10;99.90;;;;;;5045501;28;20017;-80
2023/10/31 11:58:37;;;;;;;25.67;18.55;;;14.10;99.90;;;;;;5047831;28;20528;-82
2023/10/31 12:01:08;;;;;;;26.88;18.63;;;14.10;99.90;;;;;;5046462;28;20044;-81
2023/10/31 12:03:42;;;;;;;23.77;17.77;;;14.10;99.90;;;;;;5035294;28;20024;-81
2023/10/31 12:06:09;;;;;;;24.40;17.58;;;14.00;99.90;;;;;;5049764;28;20040;-82
2023/10/31 12:08:40;;;;;;;29.40;18.33;;;13.90;99.90;;;;;;5049268;28;20496;-82
2023/10/31 12:11:20;;;;;;;29.73;17.30;;;13.80;99.90;;;;;;5050493;28;20036;-80
2023/10/31 12:14:00;;;;;;;30.58;17.73;;;13.70;99.90;;;;;;5046093;28;20085;-82
2023/10/31 12:16:31;;;;;;;22.90;15.77;;;13.70;99.90;;;;;;5049937;28;20040;-82
2023/10/31 12:19:04;;;;;;;24.58;15.85;;;13.60;99.90;;;;;;5049798;28;20525;-82
2023/10/31 12:21:36;;;;;;;24.92;17.25;;;13.60;99.90;;;;;;5049929;28;20067;-82
2023/10/31 12:24:03;;;;;;;26.23;15.98;;;13.60;99.90;;;;;;5037948;28;20021;-82
2023/10/31 12:26:29;;;;;;;22.35;15.73;;;13.60;99.90;;;;;;5049836;28;20448;-82
2023/10/31 12:29:16;;;;;;;25.95;15.82;;;13.60;99.90;;;;;;5050868;28;20105;-81